Time;durP1;ratioP1;P1;durP2;ratioP2;P2;SDS_P1;SDS_P2;PMS_P1;PMS_P2;Temp;Humidity;BMP_temperature;BMP_pressure;BME280_temperature;BME280_humidity;BME280_pressure;Samples;Min_cycle;Max_cycle;Signal;HPM_P1;HPM_P2
2021/11/30 00:00:12;;;;;;;13.93;7.55;;;6.40;99.90;;;;;;2072872;28;20429;-70
2021/11/30 00:01:14;;;;;;;11.85;7.53;;;6.40;99.90;;;;;;2070203;28;20030;-70
2021/11/30 00:02:15;;;;;;;14.38;8.18;;;6.30;99.90;;;;;;2072805;28;20029;-70
2021/11/30 00:03:16;;;;;;;10.93;7.38;;;6.30;99.90;;;;;;2079390;28;20888;-70
2021/11/30 00:04:17;;;;;;;12.95;8.13;;;6.30;99.90;;;;;;2080747;28;20398;-70
2021/11/30 00:05:18;;;;;;;12.40;7.88;;;6.30;99.90;;;;;;2072403;28;20034;-70
2021/11/30 00:06:19;;;;;;;11.18;7.80;;;6.30;99.90;;;;;;2072741;28;20057;-70
2021/11/30 00:07:19;;;;;;;11.35;7.82;;;6.30;99.90;;;;;;2072477;28;20406;-70
2021/11/30 00:08:20;;;;;;;13.10;7.78;;;6.30;99.90;;;;;;2072674;28;20030;-70
2021/11/30 00:10:46;;;;;;;13.20;8.30;;;6.40;99.90;;;;;;2058682;28;20031;-70
2021/11/30 00:11:47;;;;;;;17.85;8.35;;;6.40;99.90;;;;;;2068258;28;20116;-70
2021/11/30 00:12:48;;;;;;;15.63;8.80;;;6.40;99.90;;;;;;2069950;28;20510;-71
2021/11/30 00:13:49;;;;;;;13.32;8.90;;;6.40;99.90;;;;;;2072582;28;20355;-70
2021/11/30 00:14:53;;;;;;;19.38;8.93;;;6.30;99.90;;;;;;2072559;28;20104;-70
2021/11/30 00:15:56;;;;;;;16.67;9.15;;;6.40;99.90;;;;;;2072317;28;20018;-70
2021/11/30 00:16:57;;;;;;;12.73;8.43;;;6.30;99.90;;;;;;2072876;28;20030;-71
2021/11/30 00:17:58;;;;;;;15.02;8.13;;;6.30;99.90;;;;;;2072680;28;20022;-70
2021/11/30 00:18:59;;;;;;;17.00;8.77;;;6.30;99.90;;;;;;2072531;28;20117;-70
2021/11/30 00:19:59;;;;;;;16.00;8.77;;;6.30;99.90;;;;;;2071700;28;20033;-70
2021/11/30 00:21:02;;;;;;;15.93;8.80;;;6.30;99.90;;;;;;2072036;28;20018;-70
2021/11/30 00:22:05;;;;;;;17.10;8.40;;;6.40;99.90;;;;;;2072342;28;20014;-70
2021/11/30 00:23:06;;;;;;;16.55;8.60;;;6.40;99.90;;;;;;2072019;28;20077;-70
2021/11/30 00:24:07;;;;;;;15.90;9.30;;;6.40;99.90;;;;;;2071901;28;20091;-70
2021/11/30 00:25:08;;;;;;;15.02;9.25;;;6.40;99.90;;;;;;2071922;28;20521;-70
2021/11/30 00:26:08;;;;;;;15.70;8.98;;;6.40;99.90;;;;;;2071790;28;20046;-70
2021/11/30 00:27:09;;;;;;;18.90;9.82;;;6.40;99.90;;;;;;2072408;28;20030;-70
2021/11/30 00:28:10;;;;;;;17.30;8.48;;;6.40;99.90;;;;;;2072236;28;20026;-70
2021/11/30 00:29:11;;;;;;;13.85;9.18;;;6.40;99.90;;;;;;2072132;28;20034;-70
2021/11/30 00:30:11;;;;;;;17.55;8.60;;;6.40;99.90;;;;;;2071635;28;20482;-71
2021/11/30 00:31:12;;;;;;;14.82;9.60;;;6.40;99.90;;;;;;2079923;28;20125;-70
2021/11/30 00:32:13;;;;;;;16.23;9.35;;;6.40;99.90;;;;;;2088295;28;20100;-70
2021/11/30 00:33:14;;;;;;;20.92;9.05;;;6.40;99.90;;;;;;2071951;28;20029;-70
2021/11/30 00:34:14;;;;;;;17.10;9.45;;;6.30;99.90;;;;;;2072188;28;20065;-70
2021/11/30 00:35:15;;;;;;;18.65;8.55;;;6.40;99.90;;;;;;2072365;28;20026;-70
2021/11/30 00:36:17;;;;;;;18.73;9.32;;;6.30;99.90;;;;;;2068287;28;20113;-70
2021/11/30 00:37:18;;;;;;;14.02;8.52;;;6.30;99.90;;;;;;2072372;28;20040;-70
2021/11/30 00:38:19;;;;;;;18.33;9.65;;;6.30;99.90;;;;;;2072244;28;20083;-70
2021/11/30 00:39:21;;;;;;;18.58;9.85;;;6.40;99.90;;;;;;2072517;28;20030;-70
2021/11/30 00:40:23;;;;;;;16.95;9.45;;;6.30;99.90;;;;;;2072365;28;20054;-70
2021/11/30 00:41:23;;;;;;;19.70;10.05;;;6.30;99.90;;;;;;2072428;28;20088;-70
2021/11/30 00:42:25;;;;;;;20.98;9.82;;;6.30;99.90;;;;;;2072415;28;20030;-70
2021/11/30 00:43:32;;;;;;;19.67;9.90;;;6.30;99.90;;;;;;2071779;28;20385;-70
2021/11/30 00:44:35;;;;;;;20.95;10.35;;;6.30;99.90;;;;;;2072318;28;20025;-70
2021/11/30 00:45:48;;;;;;;22.05;9.43;;;6.30;99.90;;;;;;2072388;28;20022;-70
2021/11/30 00:46:52;;;;;;;16.75;9.63;;;6.30;99.90;;;;;;2072157;28;20025;-70
2021/11/30 00:47:56;;;;;;;20.30;10.52;;;6.30;99.90;;;;;;2072152;28;20410;-71
2021/11/30 00:48:56;;;;;;;16.70;10.15;;;6.30;99.90;;;;;;2072157;28;20036;-70
2021/11/30 00:49:59;;;;;;;20.88;10.02;;;6.30;99.90;;;;;;2072287;28;20022;-71
2021/11/30 00:51:05;;;;;;;18.73;10.05;;;6.30;99.90;;;;;;2071618;28;20048;-70
2021/11/30 00:52:06;;;;;;;21.15;10.25;;;6.30;99.90;;;;;;2079951;28;20021;-70
2021/11/30 00:53:06;;;;;;;23.65;10.90;;;6.30;99.90;;;;;;2079423;28;20033;-71
2021/11/30 00:54:09;;;;;;;19.27;9.35;;;6.30;99.90;;;;;;2072335;28;20022;-70
2021/11/30 00:55:10;;;;;;;20.08;9.75;;;6.30;99.90;;;;;;2072303;28;20018;-71
2021/11/30 00:56:11;;;;;;;18.23;10.27;;;6.30;99.90;;;;;;2072477;28;20030;-71
2021/11/30 00:57:13;;;;;;;24.15;10.73;;;6.30;99.90;;;;;;2072483;28;20045;-70
2021/11/30 00:58:14;;;;;;;18.48;9.90;;;6.30;99.90;;;;;;2071975;28;20076;-70
2021/11/30 00:59:15;;;;;;;17.95;9.75;;;6.30;99.90;;;;;;2072284;28;20034;-70
2021/11/30 01:00:18;;;;;;;18.33;9.35;;;6.30;99.90;;;;;;2071849;28;20109;-70
2021/11/30 01:01:20;;;;;;;13.73;8.90;;;6.30;99.90;;;;;;2071202;28;20506;-70
2021/11/30 01:02:20;;;;;;;17.85;9.85;;;6.30;99.90;;;;;;2072396;28;20461;-70
2021/11/30 01:03:21;;;;;;;19.42;9.10;;;6.30;99.90;;;;;;2071688;28;20026;-70
2021/11/30 01:04:22;;;;;;;15.93;9.30;;;6.30;99.90;;;;;;2074641;28;20029;-70
2021/11/30 01:05:22;;;;;;;15.93;9.10;;;6.30;99.90;;;;;;2071541;28;20026;-70
2021/11/30 01:06:23;;;;;;;19.92;9.30;;;6.30;99.90;;;;;;2072435;28;20026;-70
2021/11/30 01:07:24;;;;;;;14.60;9.63;;;6.30;99.90;;;;;;2071976;28;20113;-70
2021/11/30 01:08:24;;;;;;;13.75;8.95;;;6.30;99.90;;;;;;2072505;28;20022;-71
2021/11/30 01:09:26;;;;;;;14.15;10.20;;;6.30;99.90;;;;;;2074045;28;20030;-70
2021/11/30 01:10:27;;;;;;;17.15;9.35;;;6.30;99.90;;;;;;2067399;28;20026;-70
2021/11/30 01:11:27;;;;;;;14.90;9.32;;;6.30;99.90;;;;;;2071255;28;20598;-70
2021/11/30 01:12:28;;;;;;;19.95;10.02;;;6.30;99.90;;;;;;2071165;28;20487;-70
2021/11/30 01:13:33;;;;;;;14.77;9.70;;;6.30;99.90;;;;;;2071711;28;20026;-70
2021/11/30 01:14:33;;;;;;;17.85;10.20;;;6.30;99.90;;;;;;2072510;28;20018;-70
2021/11/30 01:15:34;;;;;;;20.58;10.32;;;6.20;99.90;;;;;;2071318;28;20026;-71
2021/11/30 01:16:35;;;;;;;16.30;10.32;;;6.20;99.90;;;;;;2071852;28;20022;-70
2021/11/30 01:17:36;;;;;;;16.88;10.57;;;6.20;99.90;;;;;;2072015;28;20030;-70
2021/11/30 01:18:36;;;;;;;18.38;10.30;;;6.20;99.90;;;;;;2072179;28;20033;-70
2021/11/30 01:19:37;;;;;;;15.30;10.00;;;6.20;99.90;;;;;;2072063;28;20116;-70
2021/11/30 01:20:38;;;;;;;14.85;10.27;;;6.20;99.90;;;;;;2072047;28;20441;-70
2021/11/30 01:21:39;;;;;;;17.80;9.77;;;6.20;99.90;;;;;;2072256;28;20105;-70
2021/11/30 01:22:41;;;;;;;15.80;10.48;;;6.20;99.90;;;;;;2071515;28;20386;-70
2021/11/30 01:23:41;;;;;;;15.95;10.30;;;6.10;99.90;;;;;;2072020;28;20161;-71
2021/11/30 01:24:42;;;;;;;18.73;10.77;;;6.10;99.90;;;;;;2072162;28;20026;-70
2021/11/30 01:25:43;;;;;;;16.52;10.63;;;6.10;99.90;;;;;;2071962;28;20105;-71
2021/11/30 01:26:43;;;;;;;17.20;10.85;;;6.10;99.90;;;;;;2071915;28;20381;-70
2021/11/30 01:27:46;;;;;;;17.95;10.88;;;6.10;99.90;;;;;;2072312;28;20022;-70
2021/11/30 01:28:47;;;;;;;17.33;10.32;;;6.10;99.90;;;;;;2079063;28;20057;-70
2021/11/30 01:29:48;;;;;;;15.32;11.32;;;6.10;99.90;;;;;;2079571;28;20075;-70
2021/11/30 01:30:48;;;;;;;15.18;10.70;;;6.10;99.90;;;;;;2071540;28;20045;-70
2021/11/30 01:31:49;;;;;;;19.98;11.18;;;6.10;99.90;;;;;;2071011;28;20494;-70
2021/11/30 01:32:50;;;;;;;18.45;10.88;;;6.10;99.90;;;;;;2071015;28;20057;-70
2021/11/30 01:33:51;;;;;;;15.40;10.73;;;6.10;99.90;;;;;;2072217;28;20033;-71
2021/11/30 01:34:51;;;;;;;16.77;10.77;;;6.10;99.90;;;;;;2072171;28;20037;-70
2021/11/30 01:35:53;;;;;;;18.02;10.98;;;6.10;99.90;;;;;;2072099;28;20037;-70
2021/11/30 01:36:55;;;;;;;16.80;10.73;;;6.10;99.90;;;;;;2071426;28;20018;-70
2021/11/30 01:37:56;;;;;;;17.05;10.57;;;6.10;99.90;;;;;;2071869;28;20026;-70
2021/11/30 01:39:00;;;;;;;16.10;11.05;;;6.10;99.90;;;;;;2072155;28;20029;-70
2021/11/30 01:40:00;;;;;;;18.58;11.07;;;6.00;99.90;;;;;;2072104;28;20117;-70
2021/11/30 01:41:04;;;;;;;15.35;10.90;;;6.00;99.90;;;;;;2071450;28;20030;-70
2021/11/30 01:42:05;;;;;;;18.15;10.30;;;6.00;99.90;;;;;;2072304;28;20022;-70
2021/11/30 01:43:08;;;;;;;14.85;11.27;;;6.00;99.90;;;;;;2071484;28;20037;-70
2021/11/30 01:44:22;;;;;;;18.00;11.05;;;6.10;99.90;;;;;;2072059;28;20425;-70
2021/11/30 01:46:54;;;;;;;17.02;11.18;;;6.00;99.90;;;;;;2069017;28;20033;-70
2021/11/30 01:49:19;;;;;;;13.88;10.95;;;6.00;99.90;;;;;;2071991;28;20026;-70
2021/11/30 01:50:20;;;;;;;14.23;10.98;;;6.00;99.90;;;;;;2072260;28;20022;-70
2021/11/30 01:51:21;;;;;;;15.00;11.52;;;6.00;99.90;;;;;;2071953;28;20478;-70
2021/11/30 01:52:22;;;;;;;17.98;11.63;;;6.00;99.90;;;;;;2071292;28;20026;-71
2021/11/30 01:53:23;;;;;;;17.80;11.88;;;6.00;99.90;;;;;;2070563;28;20026;-70
2021/11/30 01:54:23;;;;;;;17.30;11.32;;;5.90;99.90;;;;;;2072093;28;20025;-70
2021/11/30 01:55:24;;;;;;;16.02;11.10;;;5.90;99.90;;;;;;2069061;28;20527;-70
2021/11/30 01:56:26;;;;;;;16.02;11.77;;;6.00;99.90;;;;;;2067766;28;20876;-70
2021/11/30 01:57:27;;;;;;;17.45;12.07;;;6.00;99.90;;;;;;2070894;28;20038;-70
2021/11/30 01:58:28;;;;;;;18.35;11.05;;;6.00;99.90;;;;;;2074205;28;20022;-70
2021/11/30 01:59:28;;;;;;;16.50;10.65;;;6.00;99.90;;;;;;2076004;28;20041;-70
2021/11/30 02:00:30;;;;;;;15.95;10.82;;;6.00;99.90;;;;;;2072101;28;20033;-70
2021/11/30 02:01:31;;;;;;;15.88;10.60;;;6.00;99.90;;;;;;2071020;28;20117;-70
2021/11/30 02:02:32;;;;;;;17.05;11.23;;;6.00;99.90;;;;;;2071445;28;20729;-70
2021/11/30 02:03:34;;;;;;;16.42;11.65;;;6.00;99.90;;;;;;2071133;28;20410;-70
2021/11/30 02:04:36;;;;;;;13.07;10.65;;;6.00;99.90;;;;;;2071593;28;20034;-70
2021/11/30 02:05:39;;;;;;;18.30;11.65;;;6.00;99.90;;;;;;2071441;28;20018;-70
2021/11/30 02:06:40;;;;;;;17.20;12.10;;;6.00;99.90;;;;;;2072051;28;20014;-70
2021/11/30 02:07:41;;;;;;;20.00;12.27;;;6.00;99.90;;;;;;2071894;28;20056;-70
2021/11/30 02:08:42;;;;;;;15.50;11.10;;;6.00;99.90;;;;;;2072012;28;20382;-70
2021/11/30 02:09:45;;;;;;;17.10;11.38;;;6.00;99.90;;;;;;2069554;28;20040;-70
2021/11/30 02:10:45;;;;;;;16.95;11.23;;;6.00;99.90;;;;;;2069298;28;20038;-70
2021/11/30 02:11:47;;;;;;;16.63;11.85;;;6.00;99.90;;;;;;2071753;28;20026;-70
2021/11/30 02:12:48;;;;;;;16.02;11.43;;;6.00;99.90;;;;;;2070607;28;20113;-70
2021/11/30 02:13:48;;;;;;;18.60;10.93;;;6.00;99.90;;;;;;2071052;28;20037;-70
2021/11/30 02:14:50;;;;;;;15.23;11.18;;;6.00;99.90;;;;;;2071842;28;20034;-70
2021/11/30 02:15:54;;;;;;;17.10;11.40;;;6.00;99.90;;;;;;2071680;28;20032;-70
2021/11/30 02:16:55;;;;;;;17.95;10.32;;;6.00;99.90;;;;;;2071627;28;20018;-70
2021/11/30 02:18:02;;;;;;;15.95;10.90;;;6.00;99.90;;;;;;2071983;28;20032;-70
2021/11/30 02:19:04;;;;;;;17.98;10.65;;;6.00;99.90;;;;;;2071985;28;20363;-70
2021/11/30 02:20:08;;;;;;;16.88;10.52;;;6.00;99.90;;;;;;2071541;28;20679;-70
2021/11/30 02:21:09;;;;;;;18.67;10.95;;;6.00;99.90;;;;;;2071388;28;20045;-71
2021/11/30 02:22:13;;;;;;;18.50;11.32;;;6.00;99.90;;;;;;2067749;28;20101;-71
2021/11/30 02:24:38;;;;;;;16.50;10.73;;;6.00;99.90;;;;;;2062518;28;20030;-71
2021/11/30 02:25:38;;;;;;;19.15;11.15;;;5.90;99.90;;;;;;2070671;28;20045;-71
2021/11/30 02:26:40;;;;;;;12.35;9.88;;;5.90;99.90;;;;;;2071486;28;20022;-71
2021/11/30 02:27:41;;;;;;;13.60;10.18;;;5.90;99.90;;;;;;2071798;28;20026;-71
2021/11/30 02:28:44;;;;;;;13.38;10.90;;;6.00;99.90;;;;;;2071683;28;20026;-71
2021/11/30 02:29:45;;;;;;;15.43;10.80;;;6.00;99.90;;;;;;2071390;28;20033;-72
2021/11/30 02:30:46;;;;;;;15.30;9.45;;;5.90;99.90;;;;;;2071404;28;20037;-71
2021/11/30 02:31:48;;;;;;;13.85;10.10;;;5.90;99.90;;;;;;2071722;28;20120;-71
2021/11/30 02:32:49;;;;;;;13.38;9.70;;;5.90;99.90;;;;;;2070997;28;20022;-71
2021/11/30 02:33:50;;;;;;;16.77;9.20;;;5.90;99.90;;;;;;2071544;28;20032;-71
2021/11/30 02:34:50;;;;;;;13.15;9.13;;;5.80;99.90;;;;;;2071407;28;20061;-71
2021/11/30 02:35:52;;;;;;;13.73;8.73;;;5.80;99.90;;;;;;2071627;28;20038;-71
2021/11/30 02:36:54;;;;;;;17.55;9.23;;;5.80;99.90;;;;;;2071275;28;20030;-72
2021/11/30 02:37:58;;;;;;;17.98;9.75;;;5.80;99.90;;;;;;2071578;28;20101;-71
2021/11/30 02:39:01;;;;;;;15.30;8.50;;;5.80;99.90;;;;;;2071173;28;20160;-71
2021/11/30 02:40:02;;;;;;;14.05;8.32;;;5.80;99.90;;;;;;2076731;28;20068;-71
2021/11/30 02:41:02;;;;;;;16.65;8.55;;;5.70;99.90;;;;;;2069322;28;20021;-71
2021/11/30 02:42:07;;;;;;;15.35;8.57;;;5.70;99.90;;;;;;2061777;28;20162;-71
2021/11/30 02:43:08;;;;;;;11.70;7.53;;;5.70;99.90;;;;;;2072298;28;20041;-71
2021/11/30 02:44:11;;;;;;;14.20;8.27;;;5.70;99.90;;;;;;2078261;28;20113;-71
2021/11/30 02:45:12;;;;;;;14.05;7.30;;;5.70;99.90;;;;;;2077142;28;20079;-72
2021/11/30 02:46:27;;;;;;;14.50;7.85;;;5.70;99.90;;;;;;2071459;28;20029;-72
2021/11/30 02:47:28;;;;;;;12.90;8.00;;;5.60;99.90;;;;;;2071621;28;20014;-71
2021/11/30 02:48:29;;;;;;;16.30;9.10;;;5.60;99.90;;;;;;2071625;28;20018;-71
2021/11/30 02:49:32;;;;;;;14.40;7.53;;;5.60;99.90;;;;;;2071536;28;20033;-72
2021/11/30 02:50:42;;;;;;;13.98;7.93;;;5.50;99.90;;;;;;2071088;28;20030;-72
2021/11/30 02:51:46;;;;;;;11.77;8.07;;;5.50;99.90;;;;;;2071264;28;20034;-71
2021/11/30 02:52:47;;;;;;;12.07;7.22;;;5.50;99.90;;;;;;2071209;28;20692;-71
2021/11/30 02:53:47;;;;;;;14.48;7.65;;;5.40;99.90;;;;;;2071249;28;20029;-72
2021/11/30 02:54:54;;;;;;;14.70;8.20;;;5.40;99.90;;;;;;2070790;28;20040;-71
2021/11/30 02:55:54;;;;;;;14.63;8.38;;;5.40;99.90;;;;;;2066124;28;20022;-71
2021/11/30 02:56:57;;;;;;;16.45;8.32;;;5.40;99.90;;;;;;2071602;28;20177;-71
2021/11/30 02:57:58;;;;;;;14.52;8.18;;;5.40;99.90;;;;;;2071470;28;20049;-71
2021/11/30 02:58:59;;;;;;;14.32;7.50;;;5.40;99.90;;;;;;2071382;28;20030;-72
2021/11/30 02:59:59;;;;;;;11.73;7.38;;;5.40;99.90;;;;;;2078361;28;20075;-71
2021/11/30 03:01:03;;;;;;;16.08;8.20;;;5.40;99.90;;;;;;2074546;28;20026;-71
2021/11/30 03:02:13;;;;;;;15.90;7.72;;;5.40;99.90;;;;;;2072919;28;20471;-71
2021/11/30 03:03:14;;;;;;;16.48;8.50;;;5.40;99.90;;;;;;2072139;28;20030;-71
2021/11/30 03:04:15;;;;;;;15.30;7.50;;;5.40;99.90;;;;;;2072873;28;20386;-71
2021/11/30 03:05:15;;;;;;;13.63;7.40;;;5.40;99.90;;;;;;2072357;28;20033;-71
2021/11/30 03:06:16;;;;;;;11.55;7.65;;;5.40;99.90;;;;;;2072823;28;20033;-71
2021/11/30 03:07:25;;;;;;;15.75;8.18;;;5.40;99.90;;;;;;2072330;28;20054;-71
2021/11/30 03:08:26;;;;;;;13.85;7.60;;;5.40;99.90;;;;;;2072890;28;20022;-71
2021/11/30 03:09:27;;;;;;;18.95;8.82;;;5.30;99.90;;;;;;2072721;28;20022;-71
2021/11/30 03:10:27;;;;;;;15.30;7.55;;;5.30;99.90;;;;;;2068535;28;20064;-72
2021/11/30 03:11:28;;;;;;;18.30;9.32;;;5.30;99.90;;;;;;2072222;28;20022;-72
2021/11/30 03:12:29;;;;;;;16.05;8.63;;;5.30;99.90;;;;;;2072719;28;20021;-72
2021/11/30 03:13:29;;;;;;;19.75;9.40;;;5.30;99.90;;;;;;2071907;28;20057;-71
2021/11/30 03:14:31;;;;;;;14.90;8.43;;;5.30;99.90;;;;;;2073025;28;20489;-71
2021/11/30 03:15:31;;;;;;;17.20;8.35;;;5.30;99.90;;;;;;2072488;28;20355;-71
2021/11/30 03:16:33;;;;;;;14.10;8.50;;;5.30;99.90;;;;;;2075216;28;20049;-71
2021/11/30 03:17:34;;;;;;;18.20;9.25;;;5.30;99.90;;;;;;2072898;28;20100;-72
2021/11/30 03:18:36;;;;;;;16.65;9.05;;;5.30;99.90;;;;;;2072533;28;20049;-71
2021/11/30 03:19:37;;;;;;;16.58;8.82;;;5.30;99.90;;;;;;2072393;28;20022;-71
2021/11/30 03:20:37;;;;;;;16.20;9.18;;;5.30;99.90;;;;;;2071818;28;20026;-71
2021/11/30 03:21:38;;;;;;;16.17;9.43;;;5.30;99.90;;;;;;2071841;28;20026;-71
2021/11/30 03:22:39;;;;;;;17.50;9.75;;;5.30;99.90;;;;;;2072235;28;20026;-71
2021/11/30 03:23:41;;;;;;;15.02;9.25;;;5.30;99.90;;;;;;2071864;28;20479;-72
2021/11/30 03:24:42;;;;;;;14.63;8.85;;;5.30;99.90;;;;;;2072488;28;20076;-72
2021/11/30 03:25:43;;;;;;;17.77;9.23;;;5.30;99.90;;;;;;2072853;28;20057;-71
2021/11/30 03:26:44;;;;;;;15.38;9.60;;;5.30;99.90;;;;;;2072472;28;20514;-71
2021/11/30 03:27:47;;;;;;;16.15;9.75;;;5.30;99.90;;;;;;2072859;28;20073;-71
2021/11/30 03:28:48;;;;;;;14.07;8.68;;;5.30;99.90;;;;;;2072561;28;20064;-71
2021/11/30 03:29:49;;;;;;;14.80;8.98;;;5.20;99.90;;;;;;2072881;28;20084;-71
2021/11/30 03:30:57;;;;;;;15.55;8.55;;;5.20;99.90;;;;;;2072594;28;20041;-71
2021/11/30 03:32:08;;;;;;;19.67;9.38;;;5.20;99.90;;;;;;2072615;28;20034;-71
2021/11/30 03:34:48;;;;;;;14.85;8.27;;;5.20;99.90;;;;;;2071362;28;20026;-72
2021/11/30 03:35:49;;;;;;;12.38;8.38;;;5.10;99.90;;;;;;2071521;28;20394;-72
2021/11/30 03:36:56;;;;;;;16.50;9.23;;;5.10;99.90;;;;;;2062989;28;20161;-72
2021/11/30 03:37:57;;;;;;;12.75;8.35;;;5.10;99.90;;;;;;2063674;28;20050;-71
2021/11/30 03:39:00;;;;;;;11.85;8.05;;;5.10;99.90;;;;;;2063424;28;20034;-71
2021/11/30 03:40:01;;;;;;;12.20;7.50;;;5.10;99.90;;;;;;2068431;28;20034;-71
2021/11/30 03:41:01;;;;;;;11.95;7.65;;;5.10;99.90;;;;;;2069990;28;20041;-71
2021/11/30 03:42:03;;;;;;;12.02;7.78;;;5.10;99.90;;;;;;2072758;28;20023;-71
2021/11/30 03:43:03;;;;;;;15.25;8.77;;;5.10;99.90;;;;;;2071721;28;20573;-71
2021/11/30 03:44:06;;;;;;;10.00;7.72;;;5.00;99.90;;;;;;2072467;28;20466;-71
2021/11/30 03:45:07;;;;;;;10.00;7.05;;;5.00;99.90;;;;;;2072603;28;20105;-71
2021/11/30 03:46:08;;;;;;;10.07;6.78;;;5.00;99.90;;;;;;2072719;28;20018;-72
2021/11/30 03:47:09;;;;;;;9.27;6.80;;;5.00;99.90;;;;;;2072500;28;20041;-72
2021/11/30 03:48:10;;;;;;;11.55;7.30;;;4.90;99.90;;;;;;2072685;28;20478;-71
2021/11/30 03:49:12;;;;;;;12.43;7.25;;;4.90;99.90;;;;;;2072198;28;20113;-71
2021/11/30 03:50:13;;;;;;;10.13;6.57;;;4.90;99.90;;;;;;2072413;28;20447;-71
2021/11/30 03:51:14;;;;;;;10.18;6.18;;;4.90;99.90;;;;;;2075157;28;20034;-71
2021/11/30 03:52:14;;;;;;;11.55;7.45;;;4.90;99.90;;;;;;2072733;28;20841;-72
2021/11/30 03:53:15;;;;;;;9.63;6.78;;;4.90;99.90;;;;;;2071827;28;20482;-71
2021/11/30 03:54:17;;;;;;;9.77;7.07;;;4.90;99.90;;;;;;2072367;28;21514;-72
2021/11/30 03:55:17;;;;;;;10.60;6.50;;;4.90;99.90;;;;;;2073820;28;20055;-71
2021/11/30 03:56:18;;;;;;;8.98;6.18;;;4.90;99.90;;;;;;2074209;28;20829;-72
2021/11/30 03:57:19;;;;;;;9.15;6.55;;;4.90;99.90;;;;;;2073952;28;20029;-72
2021/11/30 03:58:19;;;;;;;7.47;6.28;;;4.90;99.90;;;;;;2074193;28;20056;-72
2021/11/30 03:59:20;;;;;;;9.50;6.63;;;4.90;99.90;;;;;;2073705;28;20096;-71
2021/11/30 04:00:20;;;;;;;8.88;6.55;;;4.90;99.90;;;;;;2074149;28;20108;-72
2021/11/30 04:01:21;;;;;;;8.02;6.05;;;4.90;99.90;;;;;;2073520;28;20062;-72
2021/11/30 04:02:22;;;;;;;9.45;6.00;;;4.90;99.90;;;;;;2072761;28;20022;-71
2021/11/30 04:03:23;;;;;;;7.78;5.50;;;4.80;99.90;;;;;;2072366;28;20374;-71
2021/11/30 04:04:25;;;;;;;6.53;5.68;;;4.80;99.90;;;;;;2072086;28;20021;-71
2021/11/30 04:05:26;;;;;;;7.50;5.85;;;4.80;99.90;;;;;;2072485;28;20053;-72
2021/11/30 04:06:27;;;;;;;7.70;5.70;;;4.80;99.90;;;;;;2080252;28;20079;-72
2021/11/30 04:07:27;;;;;;;6.97;5.35;;;4.80;99.90;;;;;;2071996;28;20022;-72
2021/11/30 04:08:28;;;;;;;6.25;5.65;;;4.80;99.90;;;;;;2072715;28;20045;-71
2021/11/30 04:09:29;;;;;;;5.75;5.15;;;4.80;99.90;;;;;;2067989;28;20363;-72
2021/11/30 04:10:29;;;;;;;6.55;5.35;;;4.80;99.90;;;;;;2066363;28;20026;-72
2021/11/30 04:11:31;;;;;;;6.03;4.88;;;4.80;99.90;;;;;;2068926;28;20024;-71
2021/11/30 04:12:32;;;;;;;6.40;5.60;;;4.80;99.90;;;;;;2072163;28;20020;-71
2021/11/30 04:13:32;;;;;;;7.03;4.90;;;4.80;99.90;;;;;;2074532;28;20028;-71
2021/11/30 04:14:33;;;;;;;6.82;4.93;;;4.80;99.90;;;;;;2073312;28;20083;-71
2021/11/30 04:15:34;;;;;;;6.63;4.32;;;4.80;99.90;;;;;;2076193;28;20026;-71
2021/11/30 04:16:35;;;;;;;5.93;4.35;;;4.90;99.90;;;;;;2072676;28;20359;-71
2021/11/30 04:17:39;;;;;;;6.53;4.97;;;4.90;99.90;;;;;;2073022;28;20145;-72
2021/11/30 04:18:40;;;;;;;5.75;4.95;;;4.80;99.90;;;;;;2072537;28;20046;-72
2021/11/30 04:19:41;;;;;;;6.75;4.70;;;4.80;99.90;;;;;;2072283;28;20025;-71
2021/11/30 04:20:41;;;;;;;4.38;3.97;;;4.80;99.90;;;;;;2071246;28;20030;-72
2021/11/30 04:21:42;;;;;;;4.53;4.13;;;4.80;99.90;;;;;;2071985;28;20105;-71
2021/11/30 04:22:43;;;;;;;6.25;4.60;;;4.80;99.90;;;;;;2072512;28;20022;-71
2021/11/30 04:23:44;;;;;;;4.25;3.90;;;4.80;99.90;;;;;;2071928;28;20018;-72
2021/11/30 04:24:45;;;;;;;5.05;3.80;;;4.80;99.90;;;;;;2072694;28;20021;-72
2021/11/30 04:25:45;;;;;;;6.03;4.43;;;4.80;99.90;;;;;;2072430;28;20485;-72
2021/11/30 04:26:46;;;;;;;4.55;4.13;;;4.80;99.90;;;;;;2072363;28;20099;-72
2021/11/30 04:27:47;;;;;;;4.75;4.13;;;4.80;99.90;;;;;;2072810;28;20052;-72
2021/11/30 04:28:47;;;;;;;5.88;4.07;;;4.80;99.90;;;;;;2072188;28;20037;-72
2021/11/30 04:29:48;;;;;;;7.30;3.60;;;4.80;99.90;;;;;;2072238;28;20471;-72
2021/11/30 04:30:48;;;;;;;5.75;4.07;;;4.80;99.90;;;;;;2072492;28;20034;-72
2021/11/30 04:31:49;;;;;;;4.40;3.75;;;4.90;99.90;;;;;;2072676;28;20071;-72
2021/11/30 04:32:50;;;;;;;5.30;4.10;;;4.90;99.90;;;;;;2071603;28;20022;-72
2021/11/30 04:33:50;;;;;;;4.03;3.67;;;4.90;99.90;;;;;;2071245;28;20107;-71
2021/11/30 04:34:51;;;;;;;4.93;4.32;;;4.90;99.90;;;;;;2072246;28;20103;-72
2021/11/30 04:35:51;;;;;;;8.30;4.90;;;4.90;99.90;;;;;;2072594;28;20065;-71
2021/11/30 04:36:52;;;;;;;6.25;4.05;;;4.90;99.90;;;;;;2072461;28;20060;-71
2021/11/30 04:37:53;;;;;;;5.55;4.40;;;4.90;99.90;;;;;;2072595;28;20084;-71
2021/11/30 04:38:56;;;;;;;4.45;4.00;;;4.90;99.90;;;;;;2072208;28;20057;-71
2021/11/30 04:39:56;;;;;;;4.40;3.80;;;4.90;99.90;;;;;;2071749;28;20026;-72
2021/11/30 04:40:57;;;;;;;6.45;4.15;;;4.90;99.90;;;;;;2071351;28;20033;-72
2021/11/30 04:41:57;;;;;;;9.82;4.90;;;5.00;99.90;;;;;;2079860;28;20077;-72
2021/11/30 04:42:58;;;;;;;4.72;3.95;;;5.00;99.90;;;;;;2082929;28;20056;-72
2021/11/30 04:43:59;;;;;;;5.50;3.80;;;5.00;99.90;;;;;;2076415;28;20087;-72
2021/11/30 04:45:11;;;;;;;5.03;4.38;;;5.00;99.90;;;;;;2073785;28;20414;-71
2021/11/30 04:46:19;;;;;;;4.75;4.35;;;5.00;99.90;;;;;;2072789;28;20057;-71
2021/11/30 04:47:19;;;;;;;4.90;4.00;;;5.00;99.90;;;;;;2072554;28;20028;-72
2021/11/30 04:48:20;;;;;;;5.60;4.22;;;5.00;99.90;;;;;;2072321;28;20029;-72
2021/11/30 04:49:58;;;;;;;5.05;4.03;;;5.00;99.90;;;;;;2072143;28;20026;-71
2021/11/30 04:50:51;;;;;;;6.15;4.68;;;5.10;99.90;;;;;;2074409;28;20041;-71
2021/11/30 04:51:51;;;;;;;5.97;4.38;;;5.10;99.90;;;;;;2078901;28;20084;-71
2021/11/30 04:52:55;;;;;;;5.15;4.13;;;5.10;99.90;;;;;;2072597;28;20030;-72
2021/11/30 04:53:56;;;;;;;4.32;3.70;;;5.10;99.90;;;;;;2071753;28;20022;-71
2021/11/30 04:54:58;;;;;;;4.10;3.63;;;5.10;99.90;;;;;;2072082;28;20042;-71
2021/11/30 04:56:00;;;;;;;4.97;4.50;;;5.10;99.90;;;;;;2072191;28;20389;-71
2021/11/30 04:57:01;;;;;;;4.78;4.32;;;5.10;99.90;;;;;;2072480;28;20029;-71
2021/11/30 04:58:04;;;;;;;4.50;4.10;;;5.20;99.90;;;;;;2072145;28;20030;-71
2021/11/30 04:59:04;;;;;;;6.10;4.28;;;5.20;99.90;;;;;;2072100;28;20026;-72
2021/11/30 05:00:06;;;;;;;5.32;4.38;;;5.20;99.90;;;;;;2071769;28;20038;-71
2021/11/30 05:01:07;;;;;;;5.13;4.63;;;5.20;99.90;;;;;;2071393;28;20045;-71
2021/11/30 05:02:07;;;;;;;5.22;4.50;;;5.30;99.90;;;;;;2071660;28;20030;-72
2021/11/30 05:03:09;;;;;;;5.03;4.53;;;5.30;99.90;;;;;;2071664;28;20441;-71
2021/11/30 05:04:10;;;;;;;6.18;5.00;;;5.30;99.90;;;;;;2071414;28;20523;-71
2021/11/30 05:05:13;;;;;;;6.03;5.45;;;5.30;99.90;;;;;;2071419;28;20060;-72
2021/11/30 05:06:13;;;;;;;5.55;5.05;;;5.30;99.90;;;;;;2071338;28;20034;-72
2021/11/30 05:07:15;;;;;;;5.75;5.35;;;5.40;99.90;;;;;;2072143;28;20049;-72
2021/11/30 05:08:16;;;;;;;7.43;5.18;;;5.40;99.90;;;;;;2072344;28;20128;-72
2021/11/30 05:09:16;;;;;;;6.32;5.70;;;5.40;99.90;;;;;;2072332;28;20018;-72
2021/11/30 05:10:18;;;;;;;6.32;5.72;;;5.40;99.90;;;;;;2067215;28;20070;-72
2021/11/30 05:11:19;;;;;;;5.75;5.15;;;5.40;99.90;;;;;;2072015;28;20029;-72
2021/11/30 05:12:19;;;;;;;5.50;5.00;;;5.50;99.90;;;;;;2072032;28;20022;-72
2021/11/30 05:13:20;;;;;;;5.85;5.32;;;5.50;99.90;;;;;;2071688;28;20034;-71
2021/11/30 05:14:20;;;;;;;7.05;5.35;;;5.50;99.90;;;;;;2064063;28;20034;-72
2021/11/30 05:15:21;;;;;;;8.15;5.93;;;5.50;99.90;;;;;;2067066;28;20029;-72
2021/11/30 05:16:22;;;;;;;9.65;5.88;;;5.50;99.90;;;;;;2072182;28;20532;-71
2021/11/30 05:17:23;;;;;;;6.50;5.90;;;5.50;99.90;;;;;;2079676;28;20025;-71
2021/11/30 05:18:23;;;;;;;6.88;6.18;;;5.60;99.90;;;;;;2079590;28;20025;-72
2021/11/30 05:19:24;;;;;;;6.72;6.10;;;5.50;99.90;;;;;;2072060;28;20374;-72
2021/11/30 05:20:25;;;;;;;7.93;6.68;;;5.60;99.90;;;;;;2072027;28;20030;-72
2021/11/30 05:21:26;;;;;;;6.75;6.15;;;5.50;99.90;;;;;;2066089;28;20022;-72
2021/11/30 05:22:28;;;;;;;7.85;6.43;;;5.60;99.90;;;;;;2066997;28;20014;-71
2021/11/30 05:23:29;;;;;;;7.68;6.68;;;5.60;99.90;;;;;;2076707;28;20021;-72
2021/11/30 05:24:30;;;;;;;6.47;5.88;;;5.60;99.90;;;;;;2074126;28;20502;-71
2021/11/30 05:25:37;;;;;;;7.00;5.95;;;5.60;99.90;;;;;;2070669;28;20410;-71
2021/11/30 05:26:38;;;;;;;7.78;6.47;;;5.60;99.90;;;;;;2071848;28;20044;-71
2021/11/30 05:27:40;;;;;;;7.75;6.60;;;5.70;99.90;;;;;;2068838;28;20050;-71
2021/11/30 05:28:42;;;;;;;7.13;6.50;;;5.70;99.90;;;;;;2067605;28;20045;-72